Pagina principale
METAR-TAF:

METAR-TAF

Aeroporti :

Elsenborn

Bütgenbach, Belgio

latitudine: 50-28N, longitudine: 006-11E, altezza: 564 m

Osservazione

Il bollettino è stato emesso 34 minuti fa, alle 06:55 UTC
Vento 4 kt da sud-ovest
Temperature 12°C
Umidità 82%
Pressione 1023 hPa
Visibilità 10 km o più

METAR: EBLB 200655Z AUTO 23004KT 9999 NCD 12/09 Q1023 BLU

Ora: 09:29 (07:29 UTC)


TAF: mancante

Osservazioni e previsioni meteorologiche di più di 4000 aeroporti (messaggi METAR e TAF).

Le stazioni disponibili sono rappresentate dai dischi gialli e rossi sulla carta.

Puntare il mouse per vedere il nome della stazione.

Clicca sopra per visualizzare le osservazioni e previsioni meteorologiche.

Per cambiare la mappa : fare clic sui pulsanti verdi con una croce nera per ingrandire, il pulsante verde con un trattino per diminuire, o sulla freccia verde per le mappe adiacenti.


METAR-TAF: